Chadstone Weather > Observations for 24/09/20

Select Day:



Observations
Time Temp Hum DP Wind Gust Dir Rain >9am Press
C % C kph kph mm hPa
00:00 10.7 78 7.0 6.6 15.8 W 1.2 1022.0
00:10 10.6 79 7.1 6.4 15.8 WNW 1.2 1022.1
00:20 10.6 79 7.1 8.2 18.4 W 1.2 1021.9
00:30 10.5 79 7.0 8.0 18.4 WNW 1.2 1021.7
00:40 10.4 80 7.1 7.9 20.9 WNW 1.2 1021.6
00:50 10.1 82 7.2 8.8 19.4 WSW 1.2 1021.5
01:00 10.0 83 7.2 5.5 11.2 W 1.2 1021.4
01:10 10.0 84 7.4 4.3 9.7 NW 1.2 1021.2
01:20 10.0 85 7.6 3.7 9.7 WNW 1.2 1021.1
01:30 10.0 85 7.6 2.9 5.0 NW 1.2 1021.0
01:40 10.0 86 7.8 6.1 13.3 W 1.2 1020.8
01:50 9.9 87 7.8 6.6 14.8 W 1.2 1020.6
02:00 9.9 87 7.8 4.3 12.2 W 1.2 1020.6
02:10 9.8 87 7.7 4.2 13.3 WNW 1.2 1020.5
02:20 9.9 87 7.8 6.6 14.8 W 1.2 1020.4
02:30 9.8 87 7.7 8.9 15.8 NW 1.2 1020.3
02:40 10.0 85 7.6 9.6 14.8 WNW 1.2 1020.2
02:50 10.0 85 7.6 5.9 13.3 WNW 1.2 1020.1
03:00 10.0 84 7.4 6.6 12.2 W 1.2 1020.1
03:10 10.0 83 7.2 6.8 15.8 WNW 1.2 1019.9
03:20 10.1 83 7.3 6.3 14.8 W 1.2 1020.0
03:30 10.0 83 7.2 6.8 17.3 WNW 1.2 1019.9
03:40 10.0 82 7.1 8.3 18.4 W 1.2 1019.8
03:50 10.0 82 7.1 5.7 13.3 W 1.2 1019.9
04:00 10.0 81 6.9 7.3 15.8 WNW 1.2 1019.8
04:10 9.9 81 6.8 5.7 14.8 WSW 1.2 1019.7
04:20 9.7 80 6.4 7.3 14.8 W 1.2 1019.7
04:30 9.6 80 6.3 6.1 13.3 WSW 1.2 1019.7
04:40 9.4 80 6.1 5.0 11.2 W 1.2 1019.6
04:50 9.4 80 6.1 4.8 11.2 WNW 1.2 1019.7
05:00 9.5 80 6.2 4.1 9.7 NW 1.2 1019.8
05:10 9.5 80 6.2 4.9 11.2 WNW 1.2 1019.9
05:20 9.3 79 5.8 4.8 11.2 W 1.2 1019.9
05:30 9.3 79 5.8 4.2 9.7 NW 1.2 1020.0
05:40 9.4 79 5.9 5.0 12.2 W 1.2 1020.0
05:50 9.3 79 5.8 6.2 12.2 NW 1.2 1020.1
06:00 9.3 79 5.8 7.6 14.8 WNW 1.2 1020.1
06:10 9.4 78 5.8 5.8 14.8 NW 1.2 1020.1
06:20 9.4 78 5.8 5.4 12.2 NW 1.2 1020.1
06:30 9.5 78 5.9 3.0 7.2 NW 1.2 1020.2
06:40 9.5 78 5.9 5.5 11.2 NW 1.2 1020.2
06:50 9.5 78 5.9 4.9 9.7 NW 1.2 1020.2
07:00 9.5 77 5.7 4.4 11.2 NNW 1.2 1020.2
07:10 9.6 77 5.8 4.6 9.7 NW 1.2 1020.2
07:20 9.7 77 5.9 5.4 9.7 NW 1.2 1020.3
07:30 9.7 77 5.9 7.3 13.3 NNW 1.2 1020.2
07:40 9.7 76 5.7 6.0 13.3 NNW 1.2 1020.3
07:50 10.1 75 5.9 5.6 13.3 NW 1.2 1020.4
08:00 10.1 74 5.7 7.7 15.8 NW 1.2 1020.3
08:10 10.3 74 5.9 6.5 15.8 NW 1.2 1020.5
08:20 10.4 73 5.8 7.8 19.4 W 1.2 1020.5
08:30 10.6 73 6.0 10.1 19.4 WNW 1.2 1020.4
08:40 10.9 72 6.1 10.8 20.9 NW 1.2 1020.4
08:50 11.1 70 5.8 11.0 22.0 WNW 1.2 1020.3
09:00 11.5 69 6.0 8.2 15.8 WNW 0.0 1020.3
09:10 11.6 68 5.9 8.1 22.0 WNW 0.0 1020.3
09:20 11.5 67 5.6 8.0 15.8 W 0.0 1020.2
09:30 11.4 67 5.5 9.8 19.4 WNW 0.0 1020.4
09:40 11.7 66 5.6 9.7 24.5 W 0.0 1020.2
09:50 11.7 64 5.1 11.0 18.4 W 0.0 1020.3
10:00 12.0 63 5.2 9.2 19.4 WNW 0.0 1020.2
10:10 12.4 62 5.3 7.9 18.4 WNW 0.0 1020.1
10:20 12.4 59 4.6 9.1 20.9 NW 0.0 1020.0
10:30 12.4 57 4.1 6.5 17.3 NW 0.0 1020.0
10:40 12.3 58 4.3 8.1 19.4 WNW 0.0 1019.8
10:50 12.9 57 4.6 7.2 19.4 NW 0.0 1019.5
11:00 13.7 55 4.8 8.9 18.4 NNW 0.0 1019.1
11:10 13.4 55 4.5 11.7 23.4 W 0.0 1019.1
11:20 14.6 52 4.9 10.4 23.4 NW 0.0 1018.9
11:30 14.7 49 4.1 10.1 20.9 WNW 0.0 1019.1
11:40 14.1 50 3.8 8.1 20.9 NW 0.0 1019.5
11:50 13.8 52 4.1 10.7 24.5 NNW 0.0 1019.6
12:00 13.6 53 4.2 11.4 24.5 NNW 0.0 1019.3
12:10 14.1 54 4.9 9.7 24.5 NNW 0.0 1019.3
12:20 14.0 50 3.7 9.4 24.5 NNW 0.0 1019.3
12:30 13.8 50 3.6 9.3 23.4 W 0.0 1019.5
12:40 13.7 49 3.2 10.8 18.4 NNW 0.0 1019.5
12:50 14.5 48 3.6 9.8 22.0 NNW 0.0 1019.3
13:00 15.0 46 3.5 12.9 24.5 NW 0.0 1019.4
13:10 15.0 45 3.2 9.8 20.9 NW 0.0 1019.2
13:20 14.7 45 2.9 10.2 18.4 NNW 0.0 1018.9
13:30 14.5 45 2.7 12.9 25.6 NNW 0.0 1018.9
13:40 14.4 46 2.9 8.8 18.4 NNW 0.0 1018.9
13:50 14.7 46 3.2 11.6 23.4 NW 0.0 1018.7
14:00 14.5 47 3.3 11.7 22.0 NW 0.0 1018.5
14:10 14.2 50 3.9 14.9 25.6 N 0.0 1018.5
14:20 14.2 53 4.8 16.2 30.6 N 0.0 1018.3
14:30 14.2 52 4.5 13.8 25.6 NNW 0.0 1017.9
14:40 14.1 51 4.1 13.0 24.5 NNW 0.0 1017.6
14:50 14.2 49 3.6 12.5 27.0 NNW 0.0 1017.3
15:00 14.1 48 3.3 16.0 28.1 N 0.0 1017.0
15:10 14.2 48 3.4 11.3 23.4 NNW 0.0 1016.8
15:20 14.3 49 3.7 12.4 24.5 NNW 0.0 1016.6
15:30 14.3 48 3.4 14.6 31.7 NNW 0.0 1016.4
15:40 14.3 50 4.0 15.1 30.6 NNW 0.0 1016.2
15:50 14.2 49 3.6 14.1 30.6 N 0.0 1016.0
16:00 14.2 49 3.6 13.1 25.6 NNW 0.0 1015.8
16:10 14.2 50 3.9 15.4 29.5 N 0.0 1015.8
16:20 14.0 50 3.7 16.6 31.7 N 0.0 1015.8
16:30 13.9 51 3.9 13.2 27.0 NNW 0.0 1015.5
16:40 13.8 50 3.6 15.1 24.5 N 0.0 1015.6
16:50 13.8 50 3.6 12.8 31.7 N 0.0 1015.4
17:00 13.7 50 3.5 14.0 31.7 N 0.0 1015.5
17:10 13.7 51 3.7 15.6 28.1 NNW 0.0 1015.6
17:20 13.8 52 4.1 15.5 29.5 NNW 0.0 1015.5
17:30 13.6 52 3.9 14.6 31.7 NNW 0.0 1015.6
17:40 13.5 53 4.1 12.4 28.1 N 0.0 1015.7
17:50 13.1 54 4.0 16.0 34.2 N 0.0 1015.7
18:00 13.0 54 3.9 11.2 23.4 NNW 0.0 1015.6
18:10 12.9 54 3.8 11.4 31.7 N 0.0 1015.9
18:20 12.7 54 3.6 12.2 25.6 NNW 0.0 1015.9
18:30 12.6 55 3.8 10.9 22.0 N 0.0 1015.9
18:40 12.5 56 4.0 12.9 24.5 NNW 0.0 1015.9
18:50 12.5 57 4.2 9.6 19.4 NW 0.0 1015.9
19:00 12.4 58 4.4 7.7 15.8 NNE 0.0 1016.0
19:10 12.3 58 4.3 10.0 23.4 NW 0.0 1015.9
19:20 12.2 60 4.7 9.7 19.4 N 0.0 1015.9
19:30 12.1 61 4.8 11.9 19.4 N 0.0 1016.0
19:40 12.1 61 4.8 10.3 23.4 NNW 0.0 1015.8
19:50 12.1 61 4.8 10.5 20.9 N 0.0 1015.7
20:00 12.0 61 4.7 10.6 25.6 N 0.0 1015.9
20:10 12.0 61 4.7 10.5 23.4 N 0.0 1016.0
20:20 11.9 62 4.9 11.0 17.3 NNW 0.0 1015.9
20:30 11.9 62 4.9 9.4 19.4 N 0.0 1015.7
20:40 11.8 62 4.8 9.0 17.3 NW 0.0 1015.4
20:50 11.9 62 4.9 11.0 18.4 NNW 0.0 1015.5
21:00 11.8 62 4.8 7.8 18.4 N 0.0 1015.4
21:10 11.7 62 4.7 9.9 20.9 N 0.0 1015.3
21:20 11.7 62 4.7 8.5 15.8 N 0.0 1015.2
21:30 11.7 62 4.7 10.6 19.4 N 0.0 1015.0
21:40 11.7 62 4.7 10.2 19.4 N 0.0 1014.9
21:50 11.8 62 4.8 9.8 24.5 NNE 0.0 1014.6
22:00 11.8 62 4.8 12.5 22.0 N 0.0 1014.2
22:10 11.7 62 4.7 10.0 23.4 NNE 0.0 1014.0
22:20 11.7 62 4.7 10.3 24.5 N 0.0 1013.8
22:30 11.6 62 4.6 10.2 19.4 NNW 0.0 1013.4
22:40 11.6 62 4.6 12.9 20.9 N 0.0 1013.4
22:50 11.5 62 4.5 11.6 23.4 N 0.0 1013.2
23:00 11.5 62 4.5 9.8 17.3 NNW 0.0 1013.1
23:10 11.5 64 4.9 16.6 30.6 NNW 0.0 1012.8
23:20 11.4 65 5.1 13.4 27.0 N 0.0 1012.6
23:30 11.4 65 5.1 14.1 30.6 NNW 0.0 1012.6
23:40 11.2 68 5.5 11.2 29.5 NNW 0.0 1012.8
23:50 11.0 71 5.9 13.6 24.5 NW 0.0 1012.9